Terminal Aerodrome Forecast
Issued by NWS Amarillo, TX

Home | Current Version | Previous Version | Text Only | Print | Product List | Glossary On
Versions: 1 2 3 4 5 6 7 8 9 10 11 12 13 14 15 16 17 18 19 20 21 22 23 24 25 26 27 28 29 30 31
000
FTUS44 KAMA 021700
TAFAMA
TAF
KAMA 021731Z 0218/0318 19013KT 6SM BR OVC005
     FM021900 19013KT P6SM OVC010
     FM022200 19016KT P6SM OVC050
     FM030000 20015G25KT P6SM BKN025
     FM031500 26013KT P6SM BKN150=

USA.gov is the U.S. government's official web portal to all federal, state and local government web resources and services.